CheckWX is a tool to help pilots better visualize weather data.  It is not intended as a substitute for an official pre-flight weather briefing.

18:55:27 UTC

KMDT TAF
Harrisburg International Airport
Harrisburg, Pennsylvania, USA
KMDT 171748Z 1718/1818 30030G35KT P6SM BKN050 FM180300 30018G28KT P6SM BKN100 FM180900 31010KT P6SM FEW250 FM181500 31012G20KT P6SM SCT250

Oct-17@
18:00 UTC

Oct-17 @ 18:00 UTC

Oct-18@
03:00 UTC

Oct-18 @ 03:00 UTC

KMDT 171748Z 1718/1818 30030G35KT P6SM BKN050
Wind
  • 300° at 30 KTS
  • {Gusting to 35 KTS
Cloud Levels
  • Broken at 5,000' AGL

Oct-18@
03:00 UTC

Oct-18 @ 03:00 UTC

Oct-18@
09:00 UTC

Oct-18 @ 09:00 UTC

FM180300 30018G28KT P6SM BKN100

From

From Standard forecast or significant change

Wind
  • 300° at 18 KTS
  • {Gusting to 28 KTS
Cloud Levels
  • Broken at 10,000' AGL

Oct-18@
09:00 UTC

Oct-18 @ 09:00 UTC

Oct-18@
15:00 UTC

Oct-18 @ 15:00 UTC

FM180900 31010KT P6SM FEW250

From

From Standard forecast or significant change

Wind
  • 310° at 10 KTS
Cloud Levels
  • Few at 25,000' AGL

Oct-18@
15:00 UTC

Oct-18 @ 15:00 UTC

Oct-18@
18:00 UTC

Oct-18 @ 18:00 UTC

FM181500 31012G20KT P6SM SCT250

From

From Standard forecast or significant change

Wind
  • 310° at 12 KTS
  • {Gusting to 20 KTS
Cloud Levels
  • Scattered at 25,000' AGL